sensor_id;sensor_type;location;lat;lon;timestamp;P1;durP1;ratioP1;P2;durP2;ratioP2
59424;SDS011;45231;44.826;20.312;2022-07-23T00:01:00;13.40;;;5.90;;
59424;SDS011;45231;44.826;20.312;2022-07-23T00:03:26;15.43;;;6.47;;
59424;SDS011;45231;44.826;20.312;2022-07-23T00:05:52;16.02;;;6.18;;
59424;SDS011;45231;44.826;20.312;2022-07-23T00:08:19;13.05;;;6.20;;
59424;SDS011;45231;44.826;20.312;2022-07-23T00:10:45;18.75;;;5.82;;
59424;SDS011;45231;44.826;20.312;2022-07-23T00:13:11;13.30;;;6.13;;
59424;SDS011;45231;44.826;20.312;2022-07-23T00:15:37;18.40;;;6.30;;
59424;SDS011;45231;44.826;20.312;2022-07-23T00:18:03;16.20;;;6.43;;
59424;SDS011;45231;44.826;20.312;2022-07-23T00:20:29;14.27;;;5.90;;
59424;SDS011;45231;44.826;20.312;2022-07-23T00:22:55;17.80;;;6.43;;
59424;SDS011;45231;44.826;20.312;2022-07-23T00:25:22;13.48;;;6.40;;
59424;SDS011;45231;44.826;20.312;2022-07-23T00:27:48;14.90;;;6.70;;
59424;SDS011;45231;44.826;20.312;2022-07-23T00:30:14;14.40;;;6.38;;
59424;SDS011;45231;44.826;20.312;2022-07-23T00:32:47;15.65;;;5.80;;
59424;SDS011;45231;44.826;20.312;2022-07-23T00:35:14;18.35;;;6.88;;
59424;SDS011;45231;44.826;20.312;2022-07-23T00:37:40;10.57;;;5.97;;
59424;SDS011;45231;44.826;20.312;2022-07-23T00:40:06;11.40;;;5.82;;
59424;SDS011;45231;44.826;20.312;2022-07-23T00:42:32;12.25;;;6.28;;
59424;SDS011;45231;44.826;20.312;2022-07-23T00:44:58;13.02;;;6.07;;
59424;SDS011;45231;44.826;20.312;2022-07-23T00:47:24;10.10;;;5.90;;
59424;SDS011;45231;44.826;20.312;2022-07-23T00:49:51;16.45;;;6.80;;
59424;SDS011;45231;44.826;20.312;2022-07-23T00:52:17;14.25;;;5.93;;
59424;SDS011;45231;44.826;20.312;2022-07-23T00:54:43;12.18;;;6.10;;
59424;SDS011;45231;44.826;20.312;2022-07-23T00:57:09;15.52;;;6.22;;
59424;SDS011;45231;44.826;20.312;2022-07-23T00:59:35;13.52;;;7.00;;
59424;SDS011;45231;44.826;20.312;2022-07-23T01:02:01;21.17;;;6.78;;
59424;SDS011;45231;44.826;20.312;2022-07-23T01:04:27;18.50;;;6.95;;
59424;SDS011;45231;44.826;20.312;2022-07-23T01:06:53;17.45;;;6.13;;
59424;SDS011;45231;44.826;20.312;2022-07-23T01:09:19;13.23;;;6.60;;
59424;SDS011;45231;44.826;20.312;2022-07-23T01:11:46;13.85;;;6.85;;
59424;SDS011;45231;44.826;20.312;2022-07-23T01:14:14;16.10;;;6.57;;
59424;SDS011;45231;44.826;20.312;2022-07-23T01:16:40;13.30;;;6.18;;
59424;SDS011;45231;44.826;20.312;2022-07-23T01:19:07;18.05;;;6.45;;
59424;SDS011;45231;44.826;20.312;2022-07-23T01:23:59;20.33;;;6.75;;
59424;SDS011;45231;44.826;20.312;2022-07-23T01:26:25;14.98;;;6.40;;
59424;SDS011;45231;44.826;20.312;2022-07-23T01:28:51;14.90;;;6.43;;
59424;SDS011;45231;44.826;20.312;2022-07-23T01:31:17;20.08;;;6.78;;
59424;SDS011;45231;44.826;20.312;2022-07-23T01:36:10;14.43;;;6.65;;
59424;SDS011;45231;44.826;20.312;2022-07-23T01:38:36;17.10;;;7.15;;
59424;SDS011;45231;44.826;20.312;2022-07-23T01:41:02;14.23;;;7.00;;
59424;SDS011;45231;44.826;20.312;2022-07-23T01:43:28;10.85;;;6.28;;
59424;SDS011;45231;44.826;20.312;2022-07-23T01:45:54;15.05;;;6.40;;
59424;SDS011;45231;44.826;20.312;2022-07-23T01:48:20;14.90;;;6.10;;
59424;SDS011;45231;44.826;20.312;2022-07-23T01:50:46;21.15;;;6.40;;
59424;SDS011;45231;44.826;20.312;2022-07-23T01:53:13;13.43;;;5.95;;
59424;SDS011;45231;44.826;20.312;2022-07-23T01:55:39;13.60;;;5.85;;
59424;SDS011;45231;44.826;20.312;2022-07-23T01:58:05;11.95;;;5.40;;
59424;SDS011;45231;44.826;20.312;2022-07-23T02:00:31;11.07;;;5.80;;
59424;SDS011;45231;44.826;20.312;2022-07-23T02:02:57;12.65;;;6.38;;
59424;SDS011;45231;44.826;20.312;2022-07-23T02:05:24;13.57;;;6.25;;
59424;SDS011;45231;44.826;20.312;2022-07-23T02:10:16;13.07;;;6.30;;
59424;SDS011;45231;44.826;20.312;2022-07-23T02:12:42;14.32;;;6.70;;
59424;SDS011;45231;44.826;20.312;2022-07-23T02:15:08;12.52;;;6.38;;
59424;SDS011;45231;44.826;20.312;2022-07-23T02:17:34;13.30;;;6.82;;
59424;SDS011;45231;44.826;20.312;2022-07-23T02:20:00;15.02;;;6.75;;
59424;SDS011;45231;44.826;20.312;2022-07-23T02:22:26;15.68;;;6.43;;
59424;SDS011;45231;44.826;20.312;2022-07-23T02:24:52;13.02;;;6.80;;
59424;SDS011;45231;44.826;20.312;2022-07-23T02:27:18;11.93;;;7.15;;
59424;SDS011;45231;44.826;20.312;2022-07-23T02:29:44;20.33;;;6.80;;
59424;SDS011;45231;44.826;20.312;2022-07-23T02:32:10;13.02;;;6.38;;
59424;SDS011;45231;44.826;20.312;2022-07-23T02:34:36;13.70;;;7.20;;
59424;SDS011;45231;44.826;20.312;2022-07-23T02:37:02;15.57;;;8.50;;
59424;SDS011;45231;44.826;20.312;2022-07-23T02:39:28;16.48;;;8.65;;
59424;SDS011;45231;44.826;20.312;2022-07-23T02:41:55;17.42;;;8.30;;
59424;SDS011;45231;44.826;20.312;2022-07-23T02:44:21;14.25;;;8.23;;
59424;SDS011;45231;44.826;20.312;2022-07-23T02:46:47;18.55;;;7.50;;
59424;SDS011;45231;44.826;20.312;2022-07-23T02:49:13;16.23;;;7.60;;
59424;SDS011;45231;44.826;20.312;2022-07-23T02:51:39;12.07;;;7.03;;
59424;SDS011;45231;44.826;20.312;2022-07-23T02:54:05;11.82;;;6.60;;
59424;SDS011;45231;44.826;20.312;2022-07-23T02:56:31;15.38;;;6.85;;
59424;SDS011;45231;44.826;20.312;2022-07-23T02:58:57;11.52;;;6.55;;
59424;SDS011;45231;44.826;20.312;2022-07-23T03:01:23;11.18;;;6.05;;
59424;SDS011;45231;44.826;20.312;2022-07-23T03:03:49;12.82;;;6.20;;
59424;SDS011;45231;44.826;20.312;2022-07-23T03:06:16;13.85;;;6.05;;
59424;SDS011;45231;44.826;20.312;2022-07-23T03:08:42;11.30;;;6.22;;
59424;SDS011;45231;44.826;20.312;2022-07-23T03:11:08;13.02;;;6.50;;
59424;SDS011;45231;44.826;20.312;2022-07-23T03:13:36;14.63;;;6.32;;
59424;SDS011;45231;44.826;20.312;2022-07-23T03:18:28;16.55;;;7.72;;
59424;SDS011;45231;44.826;20.312;2022-07-23T03:20:54;11.55;;;6.05;;
59424;SDS011;45231;44.826;20.312;2022-07-23T03:23:20;11.73;;;6.15;;
59424;SDS011;45231;44.826;20.312;2022-07-23T03:25:46;16.08;;;5.70;;
59424;SDS011;45231;44.826;20.312;2022-07-23T03:28:13;14.18;;;5.85;;
59424;SDS011;45231;44.826;20.312;2022-07-23T03:30:41;13.10;;;5.82;;
59424;SDS011;45231;44.826;20.312;2022-07-23T03:33:07;10.55;;;6.10;;
59424;SDS011;45231;44.826;20.312;2022-07-23T03:35:33;9.73;;;5.75;;
59424;SDS011;45231;44.826;20.312;2022-07-23T03:37:59;12.82;;;6.07;;
59424;SDS011;45231;44.826;20.312;2022-07-23T03:40:25;17.10;;;6.07;;
59424;SDS011;45231;44.826;20.312;2022-07-23T03:42:51;16.75;;;6.43;;
59424;SDS011;45231;44.826;20.312;2022-07-23T03:45:17;25.45;;;6.78;;
59424;SDS011;45231;44.826;20.312;2022-07-23T03:47:43;21.45;;;6.35;;
59424;SDS011;45231;44.826;20.312;2022-07-23T03:50:09;13.10;;;5.88;;
59424;SDS011;45231;44.826;20.312;2022-07-23T03:52:36;9.52;;;6.20;;
59424;SDS011;45231;44.826;20.312;2022-07-23T03:55:02;12.63;;;5.60;;
59424;SDS011;45231;44.826;20.312;2022-07-23T03:57:29;12.88;;;6.03;;
59424;SDS011;45231;44.826;20.312;2022-07-23T03:59:55;14.32;;;5.60;;
59424;SDS011;45231;44.826;20.312;2022-07-23T04:02:21;11.00;;;6.25;;
59424;SDS011;45231;44.826;20.312;2022-07-23T04:04:47;11.43;;;5.80;;
59424;SDS011;45231;44.826;20.312;2022-07-23T04:09:39;15.32;;;6.60;;
59424;SDS011;45231;44.826;20.312;2022-07-23T04:12:07;16.05;;;6.90;;
59424;SDS011;45231;44.826;20.312;2022-07-23T04:14:33;16.15;;;6.18;;
59424;SDS011;45231;44.826;20.312;2022-07-23T04:19:25;16.80;;;7.50;;
59424;SDS011;45231;44.826;20.312;2022-07-23T04:21:52;17.67;;;9.13;;
59424;SDS011;45231;44.826;20.312;2022-07-23T04:24:18;16.02;;;7.90;;
59424;SDS011;45231;44.826;20.312;2022-07-23T04:26:44;18.73;;;7.35;;
59424;SDS011;45231;44.826;20.312;2022-07-23T04:29:10;16.60;;;6.68;;
59424;SDS011;45231;44.826;20.312;2022-07-23T04:34:02;16.48;;;6.47;;
59424;SDS011;45231;44.826;20.312;2022-07-23T04:38:55;16.80;;;6.93;;
59424;SDS011;45231;44.826;20.312;2022-07-23T04:41:21;19.70;;;6.80;;
59424;SDS011;45231;44.826;20.312;2022-07-23T04:43:47;16.27;;;6.30;;
59424;SDS011;45231;44.826;20.312;2022-07-23T04:46:13;24.67;;;7.13;;
59424;SDS011;45231;44.826;20.312;2022-07-23T04:48:39;15.15;;;6.18;;
59424;SDS011;45231;44.826;20.312;2022-07-23T04:51:07;16.23;;;5.75;;
59424;SDS011;45231;44.826;20.312;2022-07-23T04:53:33;15.75;;;5.88;;
59424;SDS011;45231;44.826;20.312;2022-07-23T04:55:59;21.35;;;5.78;;
59424;SDS011;45231;44.826;20.312;2022-07-23T04:58:25;19.73;;;5.78;;
59424;SDS011;45231;44.826;20.312;2022-07-23T05:03:17;16.77;;;5.03;;
59424;SDS011;45231;44.826;20.312;2022-07-23T05:05:43;15.15;;;5.10;;
59424;SDS011;45231;44.826;20.312;2022-07-23T05:08:09;18.98;;;5.40;;
59424;SDS011;45231;44.826;20.312;2022-07-23T05:10:35;25.95;;;5.18;;
59424;SDS011;45231;44.826;20.312;2022-07-23T05:13:01;23.55;;;5.45;;
59424;SDS011;45231;44.826;20.312;2022-07-23T05:15:27;20.17;;;5.43;;
59424;SDS011;45231;44.826;20.312;2022-07-23T05:20:20;24.92;;;5.65;;
59424;SDS011;45231;44.826;20.312;2022-07-23T05:22:46;17.17;;;4.57;;
59424;SDS011;45231;44.826;20.312;2022-07-23T05:27:38;20.60;;;5.35;;
59424;SDS011;45231;44.826;20.312;2022-07-23T05:32:31;23.70;;;5.30;;
59424;SDS011;45231;44.826;20.312;2022-07-23T05:34:57;16.33;;;4.80;;
59424;SDS011;45231;44.826;20.312;2022-07-23T05:37:23;14.88;;;4.97;;
59424;SDS011;45231;44.826;20.312;2022-07-23T05:42:15;14.13;;;4.70;;
59424;SDS011;45231;44.826;20.312;2022-07-23T05:44:42;18.40;;;4.97;;
59424;SDS011;45231;44.826;20.312;2022-07-23T05:47:08;11.27;;;5.00;;
59424;SDS011;45231;44.826;20.312;2022-07-23T05:49:35;15.48;;;4.25;;
59424;SDS011;45231;44.826;20.312;2022-07-23T05:52:03;14.77;;;4.72;;
59424;SDS011;45231;44.826;20.312;2022-07-23T05:54:29;11.07;;;4.60;;
59424;SDS011;45231;44.826;20.312;2022-07-23T05:56:56;8.73;;;4.20;;
59424;SDS011;45231;44.826;20.312;2022-07-23T05:59:22;10.63;;;4.28;;
59424;SDS011;45231;44.826;20.312;2022-07-23T06:01:48;14.70;;;4.28;;
59424;SDS011;45231;44.826;20.312;2022-07-23T06:04:14;11.20;;;4.68;;
59424;SDS011;45231;44.826;20.312;2022-07-23T06:06:40;12.65;;;4.60;;
59424;SDS011;45231;44.826;20.312;2022-07-23T06:09:06;20.80;;;5.68;;
59424;SDS011;45231;44.826;20.312;2022-07-23T06:11:32;15.30;;;5.07;;
59424;SDS011;45231;44.826;20.312;2022-07-23T06:13:58;13.00;;;6.43;;
59424;SDS011;45231;44.826;20.312;2022-07-23T06:16:24;16.10;;;6.88;;
59424;SDS011;45231;44.826;20.312;2022-07-23T06:18:50;17.40;;;6.95;;
59424;SDS011;45231;44.826;20.312;2022-07-23T06:21:16;15.05;;;6.53;;
59424;SDS011;45231;44.826;20.312;2022-07-23T06:23:42;11.80;;;6.53;;
59424;SDS011;45231;44.826;20.312;2022-07-23T06:26:08;17.42;;;6.47;;
59424;SDS011;45231;44.826;20.312;2022-07-23T06:28:34;14.48;;;6.45;;
59424;SDS011;45231;44.826;20.312;2022-07-23T06:31:01;12.90;;;6.10;;
59424;SDS011;45231;44.826;20.312;2022-07-23T06:33:27;16.00;;;7.40;;
59424;SDS011;45231;44.826;20.312;2022-07-23T06:35:53;15.05;;;6.00;;
59424;SDS011;45231;44.826;20.312;2022-07-23T06:38:19;11.30;;;5.00;;
59424;SDS011;45231;44.826;20.312;2022-07-23T06:40:45;13.88;;;5.55;;
59424;SDS011;45231;44.826;20.312;2022-07-23T06:43:11;14.77;;;5.82;;
59424;SDS011;45231;44.826;20.312;2022-07-23T06:45:37;14.43;;;6.38;;
59424;SDS011;45231;44.826;20.312;2022-07-23T06:48:04;11.23;;;5.63;;
59424;SDS011;45231;44.826;20.312;2022-07-23T06:50:30;14.70;;;6.43;;
59424;SDS011;45231;44.826;20.312;2022-07-23T06:52:56;13.00;;;6.38;;
59424;SDS011;45231;44.826;20.312;2022-07-23T06:55:22;13.65;;;5.70;;
59424;SDS011;45231;44.826;20.312;2022-07-23T06:57:48;13.77;;;6.13;;
59424;SDS011;45231;44.826;20.312;2022-07-23T07:00:14;21.13;;;6.53;;
59424;SDS011;45231;44.826;20.312;2022-07-23T07:02:40;16.48;;;6.22;;
59424;SDS011;45231;44.826;20.312;2022-07-23T07:05:06;15.20;;;6.07;;
59424;SDS011;45231;44.826;20.312;2022-07-23T07:07:33;14.90;;;6.63;;
59424;SDS011;45231;44.826;20.312;2022-07-23T07:09:59;14.32;;;6.43;;
59424;SDS011;45231;44.826;20.312;2022-07-23T07:12:25;21.70;;;6.20;;
59424;SDS011;45231;44.826;20.312;2022-07-23T07:14:51;15.40;;;6.35;;
59424;SDS011;45231;44.826;20.312;2022-07-23T07:17:18;15.70;;;6.65;;
59424;SDS011;45231;44.826;20.312;2022-07-23T07:19:44;17.88;;;6.55;;
59424;SDS011;45231;44.826;20.312;2022-07-23T07:22:11;20.17;;;5.95;;
59424;SDS011;45231;44.826;20.312;2022-07-23T07:24:37;18.77;;;6.20;;
59424;SDS011;45231;44.826;20.312;2022-07-23T07:27:03;17.20;;;4.85;;
59424;SDS011;45231;44.826;20.312;2022-07-23T07:29:29;16.30;;;5.05;;
59424;SDS011;45231;44.826;20.312;2022-07-23T07:31:55;13.43;;;5.22;;
59424;SDS011;45231;44.826;20.312;2022-07-23T07:34:21;16.67;;;5.07;;
59424;SDS011;45231;44.826;20.312;2022-07-23T07:36:47;13.60;;;5.28;;
59424;SDS011;45231;44.826;20.312;2022-07-23T07:39:14;8.27;;;4.43;;
59424;SDS011;45231;44.826;20.312;2022-07-23T07:41:41;12.75;;;4.25;;
59424;SDS011;45231;44.826;20.312;2022-07-23T07:44:07;10.50;;;4.22;;
59424;SDS011;45231;44.826;20.312;2022-07-23T07:46:33;8.90;;;4.32;;
59424;SDS011;45231;44.826;20.312;2022-07-23T07:48:59;14.18;;;4.50;;
59424;SDS011;45231;44.826;20.312;2022-07-23T07:51:25;11.20;;;4.43;;
59424;SDS011;45231;44.826;20.312;2022-07-23T07:53:52;10.60;;;4.20;;
59424;SDS011;45231;44.826;20.312;2022-07-23T07:56:18;13.20;;;4.22;;
59424;SDS011;45231;44.826;20.312;2022-07-23T07:58:44;9.35;;;4.50;;
59424;SDS011;45231;44.826;20.312;2022-07-23T08:01:10;8.40;;;4.28;;
59424;SDS011;45231;44.826;20.312;2022-07-23T08:03:36;14.07;;;4.45;;
59424;SDS011;45231;44.826;20.312;2022-07-23T08:06:02;13.32;;;4.13;;
59424;SDS011;45231;44.826;20.312;2022-07-23T08:08:29;14.00;;;4.20;;
59424;SDS011;45231;44.826;20.312;2022-07-23T08:10:55;11.73;;;4.45;;
59424;SDS011;45231;44.826;20.312;2022-07-23T08:13:21;13.50;;;4.47;;
59424;SDS011;45231;44.826;20.312;2022-07-23T08:15:47;23.90;;;5.95;;
59424;SDS011;45231;44.826;20.312;2022-07-23T08:18:13;10.90;;;4.22;;
59424;SDS011;45231;44.826;20.312;2022-07-23T08:20:39;11.23;;;4.05;;
59424;SDS011;45231;44.826;20.312;2022-07-23T08:23:06;10.98;;;4.43;;
59424;SDS011;45231;44.826;20.312;2022-07-23T08:25:36;9.05;;;3.83;;
59424;SDS011;45231;44.826;20.312;2022-07-23T08:28:04;12.13;;;4.32;;
59424;SDS011;45231;44.826;20.312;2022-07-23T08:30:31;8.02;;;3.70;;
59424;SDS011;45231;44.826;20.312;2022-07-23T08:32:58;9.40;;;4.43;;
59424;SDS011;45231;44.826;20.312;2022-07-23T08:35:35;11.80;;;3.90;;
59424;SDS011;45231;44.826;20.312;2022-07-23T08:38:02;11.32;;;4.47;;
59424;SDS011;45231;44.826;20.312;2022-07-23T08:40:30;12.20;;;4.55;;
59424;SDS011;45231;44.826;20.312;2022-07-23T08:42:56;13.65;;;4.00;;
59424;SDS011;45231;44.826;20.312;2022-07-23T08:45:23;11.55;;;3.70;;
59424;SDS011;45231;44.826;20.312;2022-07-23T08:47:54;8.18;;;3.55;;
59424;SDS011;45231;44.826;20.312;2022-07-23T08:50:21;14.35;;;4.05;;
59424;SDS011;45231;44.826;20.312;2022-07-23T08:52:48;12.80;;;3.85;;
59424;SDS011;45231;44.826;20.312;2022-07-23T08:55:19;10.88;;;3.80;;
59424;SDS011;45231;44.826;20.312;2022-07-23T08:57:49;14.13;;;4.00;;
59424;SDS011;45231;44.826;20.312;2022-07-23T09:00:15;10.65;;;3.85;;
59424;SDS011;45231;44.826;20.312;2022-07-23T09:02:42;13.98;;;4.07;;
59424;SDS011;45231;44.826;20.312;2022-07-23T09:05:09;10.10;;;3.40;;
59424;SDS011;45231;44.826;20.312;2022-07-23T09:07:36;8.15;;;3.35;;
59424;SDS011;45231;44.826;20.312;2022-07-23T09:10:09;10.07;;;3.15;;
59424;SDS011;45231;44.826;20.312;2022-07-23T09:12:36;11.20;;;3.83;;
59424;SDS011;45231;44.826;20.312;2022-07-23T09:15:08;8.95;;;3.38;;
59424;SDS011;45231;44.826;20.312;2022-07-23T09:17:38;8.93;;;3.40;;
59424;SDS011;45231;44.826;20.312;2022-07-23T09:20:11;8.45;;;3.40;;
59424;SDS011;45231;44.826;20.312;2022-07-23T09:22:38;9.93;;;3.50;;
59424;SDS011;45231;44.826;20.312;2022-07-23T09:27:53;11.35;;;3.60;;
59424;SDS011;45231;44.826;20.312;2022-07-23T09:30:20;10.82;;;3.42;;
59424;SDS011;45231;44.826;20.312;2022-07-23T09:35:47;9.23;;;3.60;;
59424;SDS011;45231;44.826;20.312;2022-07-23T09:38:14;7.65;;;3.60;;
59424;SDS011;45231;44.826;20.312;2022-07-23T09:40:40;12.85;;;3.50;;
59424;SDS011;45231;44.826;20.312;2022-07-23T09:43:06;10.07;;;3.10;;
59424;SDS011;45231;44.826;20.312;2022-07-23T09:45:32;10.00;;;3.00;;
59424;SDS011;45231;44.826;20.312;2022-07-23T09:48:13;9.00;;;3.50;;
59424;SDS011;45231;44.826;20.312;2022-07-23T09:50:40;11.68;;;3.53;;
59424;SDS011;45231;44.826;20.312;2022-07-23T09:53:06;11.20;;;3.28;;
59424;SDS011;45231;44.826;20.312;2022-07-23T09:55:33;10.90;;;3.67;;
59424;SDS011;45231;44.826;20.312;2022-07-23T09:58:01;9.68;;;3.28;;
59424;SDS011;45231;44.826;20.312;2022-07-23T10:00:27;16.23;;;3.90;;
59424;SDS011;45231;44.826;20.312;2022-07-23T10:02:54;14.15;;;3.92;;
59424;SDS011;45231;44.826;20.312;2022-07-23T10:05:20;9.20;;;3.65;;
59424;SDS011;45231;44.826;20.312;2022-07-23T10:07:46;14.23;;;3.55;;
59424;SDS011;45231;44.826;20.312;2022-07-23T10:10:14;10.20;;;3.28;;
59424;SDS011;45231;44.826;20.312;2022-07-23T10:12:43;8.93;;;3.70;;
59424;SDS011;45231;44.826;20.312;2022-07-23T10:15:27;11.07;;;3.85;;
59424;SDS011;45231;44.826;20.312;2022-07-23T10:17:53;10.30;;;3.70;;
59424;SDS011;45231;44.826;20.312;2022-07-23T10:20:20;9.70;;;3.28;;
59424;SDS011;45231;44.826;20.312;2022-07-23T10:25:37;10.32;;;3.42;;
59424;SDS011;45231;44.826;20.312;2022-07-23T10:37:07;10.98;;;4.18;;
59424;SDS011;45231;44.826;20.312;2022-07-23T10:39:02;9.98;;;4.15;;
59424;SDS011;45231;44.826;20.312;2022-07-23T10:41:34;9.35;;;4.35;;
59424;SDS011;45231;44.826;20.312;2022-07-23T10:46:32;16.13;;;4.50;;
59424;SDS011;45231;44.826;20.312;2022-07-23T10:54:35;16.42;;;5.40;;
59424;SDS011;45231;44.826;20.312;2022-07-23T10:57:05;13.30;;;5.38;;
59424;SDS011;45231;44.826;20.312;2022-07-23T11:02:22;12.52;;;5.13;;
59424;SDS011;45231;44.826;20.312;2022-07-23T11:04:50;10.35;;;5.00;;
59424;SDS011;45231;44.826;20.312;2022-07-23T11:07:16;10.55;;;4.45;;
59424;SDS011;45231;44.826;20.312;2022-07-23T11:09:43;11.90;;;4.30;;
59424;SDS011;45231;44.826;20.312;2022-07-23T11:17:25;17.17;;;4.90;;
59424;SDS011;45231;44.826;20.312;2022-07-23T11:22:40;11.03;;;4.50;;
59424;SDS011;45231;44.826;20.312;2022-07-23T11:25:33;11.30;;;5.07;;
59424;SDS011;45231;44.826;20.312;2022-07-23T11:28:11;10.60;;;4.60;;
59424;SDS011;45231;44.826;20.312;2022-07-23T11:30:38;10.95;;;5.30;;
59424;SDS011;45231;44.826;20.312;2022-07-23T11:35:37;10.13;;;5.00;;
59424;SDS011;45231;44.826;20.312;2022-07-23T11:38:07;11.73;;;4.97;;
59424;SDS011;45231;44.826;20.312;2022-07-23T11:40:34;12.95;;;5.35;;
59424;SDS011;45231;44.826;20.312;2022-07-23T11:45:31;12.82;;;5.35;;
59424;SDS011;45231;44.826;20.312;2022-07-23T11:47:57;13.23;;;5.00;;
59424;SDS011;45231;44.826;20.312;2022-07-23T11:50:24;13.13;;;5.22;;
59424;SDS011;45231;44.826;20.312;2022-07-23T11:52:53;10.80;;;4.60;;
59424;SDS011;45231;44.826;20.312;2022-07-23T11:55:20;11.07;;;4.80;;
59424;SDS011;45231;44.826;20.312;2022-07-23T11:57:46;10.32;;;4.57;;
59424;SDS011;45231;44.826;20.312;2022-07-23T12:00:13;12.77;;;4.80;;
59424;SDS011;45231;44.826;20.312;2022-07-23T12:02:40;15.27;;;5.13;;
59424;SDS011;45231;44.826;20.312;2022-07-23T12:05:06;12.55;;;4.70;;
59424;SDS011;45231;44.826;20.312;2022-07-23T12:07:37;14.18;;;4.63;;
59424;SDS011;45231;44.826;20.312;2022-07-23T12:10:14;10.65;;;5.45;;
59424;SDS011;45231;44.826;20.312;2022-07-23T12:12:42;11.65;;;4.85;;
59424;SDS011;45231;44.826;20.312;2022-07-23T12:15:09;12.15;;;4.90;;
59424;SDS011;45231;44.826;20.312;2022-07-23T12:17:36;11.95;;;4.50;;
59424;SDS011;45231;44.826;20.312;2022-07-23T12:20:04;12.65;;;5.03;;
59424;SDS011;45231;44.826;20.312;2022-07-23T12:22:35;11.05;;;4.85;;
59424;SDS011;45231;44.826;20.312;2022-07-23T12:25:09;9.75;;;4.70;;
59424;SDS011;45231;44.826;20.312;2022-07-23T12:27:35;13.13;;;4.70;;
59424;SDS011;45231;44.826;20.312;2022-07-23T12:32:47;8.98;;;4.05;;
59424;SDS011;45231;44.826;20.312;2022-07-23T12:35:13;11.57;;;3.83;;
59424;SDS011;45231;44.826;20.312;2022-07-23T12:37:42;7.38;;;3.70;;
59424;SDS011;45231;44.826;20.312;2022-07-23T12:42:47;8.90;;;3.88;;
59424;SDS011;45231;44.826;20.312;2022-07-23T12:45:13;7.20;;;3.70;;
59424;SDS011;45231;44.826;20.312;2022-07-23T12:50:34;13.85;;;3.90;;
59424;SDS011;45231;44.826;20.312;2022-07-23T12:53:04;26.63;;;4.60;;
59424;SDS011;45231;44.826;20.312;2022-07-23T12:55:30;9.35;;;4.00;;
59424;SDS011;45231;44.826;20.312;2022-07-23T12:58:06;8.27;;;4.40;;
59424;SDS011;45231;44.826;20.312;2022-07-23T13:00:48;12.35;;;4.20;;
59424;SDS011;45231;44.826;20.312;2022-07-23T13:03:24;9.75;;;4.20;;
59424;SDS011;45231;44.826;20.312;2022-07-23T13:05:51;7.90;;;4.15;;
59424;SDS011;45231;44.826;20.312;2022-07-23T13:08:18;9.00;;;4.10;;
59424;SDS011;45231;44.826;20.312;2022-07-23T13:10:44;10.60;;;4.22;;
59424;SDS011;45231;44.826;20.312;2022-07-23T13:13:13;9.27;;;4.25;;
59424;SDS011;45231;44.826;20.312;2022-07-23T13:15:39;9.98;;;4.05;;
59424;SDS011;45231;44.826;20.312;2022-07-23T13:18:05;9.25;;;3.90;;
59424;SDS011;45231;44.826;20.312;2022-07-23T13:20:31;10.07;;;4.07;;
59424;SDS011;45231;44.826;20.312;2022-07-23T13:22:59;10.45;;;4.45;;
59424;SDS011;45231;44.826;20.312;2022-07-23T13:25:25;10.50;;;3.80;;
59424;SDS011;45231;44.826;20.312;2022-07-23T13:27:51;10.23;;;3.92;;
59424;SDS011;45231;44.826;20.312;2022-07-23T13:30:17;8.98;;;3.83;;
59424;SDS011;45231;44.826;20.312;2022-07-23T13:32:43;11.45;;;4.55;;
59424;SDS011;45231;44.826;20.312;2022-07-23T13:35:09;7.40;;;4.38;;
59424;SDS011;45231;44.826;20.312;2022-07-23T13:37:37;8.98;;;4.70;;
59424;SDS011;45231;44.826;20.312;2022-07-23T13:40:03;10.43;;;4.35;;
59424;SDS011;45231;44.826;20.312;2022-07-23T13:42:29;10.52;;;4.70;;
59424;SDS011;45231;44.826;20.312;2022-07-23T13:44:55;9.82;;;4.43;;
59424;SDS011;45231;44.826;20.312;2022-07-23T13:47:21;7.28;;;4.05;;
59424;SDS011;45231;44.826;20.312;2022-07-23T13:49:47;10.73;;;4.20;;
59424;SDS011;45231;44.826;20.312;2022-07-23T13:52:14;7.70;;;4.10;;
59424;SDS011;45231;44.826;20.312;2022-07-23T13:54:40;8.82;;;5.00;;
59424;SDS011;45231;44.826;20.312;2022-07-23T13:57:06;10.07;;;4.60;;
59424;SDS011;45231;44.826;20.312;2022-07-23T13:59:34;8.25;;;4.32;;
59424;SDS011;45231;44.826;20.312;2022-07-23T14:02:03;8.52;;;4.57;;
59424;SDS011;45231;44.826;20.312;2022-07-23T14:04:29;9.10;;;4.82;;
59424;SDS011;45231;44.826;20.312;2022-07-23T14:06:56;9.60;;;4.32;;
59424;SDS011;45231;44.826;20.312;2022-07-23T14:09:22;8.00;;;4.15;;
59424;SDS011;45231;44.826;20.312;2022-07-23T14:11:48;12.48;;;4.07;;
59424;SDS011;45231;44.826;20.312;2022-07-23T14:14:16;12.13;;;4.05;;
59424;SDS011;45231;44.826;20.312;2022-07-23T14:16:42;12.48;;;4.90;;
59424;SDS011;45231;44.826;20.312;2022-07-23T14:19:08;10.02;;;4.00;;
59424;SDS011;45231;44.826;20.312;2022-07-23T14:21:34;11.63;;;4.30;;
59424;SDS011;45231;44.826;20.312;2022-07-23T14:24:00;10.55;;;4.20;;
59424;SDS011;45231;44.826;20.312;2022-07-23T14:26:26;10.25;;;4.50;;
59424;SDS011;45231;44.826;20.312;2022-07-23T14:28:52;11.45;;;4.65;;
59424;SDS011;45231;44.826;20.312;2022-07-23T14:31:18;11.13;;;4.88;;
59424;SDS011;45231;44.826;20.312;2022-07-23T14:33:44;8.50;;;4.97;;
59424;SDS011;45231;44.826;20.312;2022-07-23T14:36:10;7.93;;;4.65;;
59424;SDS011;45231;44.826;20.312;2022-07-23T14:38:36;10.82;;;4.32;;
59424;SDS011;45231;44.826;20.312;2022-07-23T14:41:02;7.90;;;4.32;;
59424;SDS011;45231;44.826;20.312;2022-07-23T14:43:31;10.18;;;4.75;;
59424;SDS011;45231;44.826;20.312;2022-07-23T14:45:58;9.60;;;4.53;;
59424;SDS011;45231;44.826;20.312;2022-07-23T14:48:24;8.30;;;4.13;;
59424;SDS011;45231;44.826;20.312;2022-07-23T14:50:50;8.07;;;4.25;;
59424;SDS011;45231;44.826;20.312;2022-07-23T14:53:16;8.30;;;4.53;;
59424;SDS011;45231;44.826;20.312;2022-07-23T14:55:42;9.85;;;4.60;;
59424;SDS011;45231;44.826;20.312;2022-07-23T14:58:08;8.32;;;4.30;;
59424;SDS011;45231;44.826;20.312;2022-07-23T15:00:34;8.02;;;4.10;;
59424;SDS011;45231;44.826;20.312;2022-07-23T15:03:01;9.30;;;4.43;;
59424;SDS011;45231;44.826;20.312;2022-07-23T15:05:27;8.15;;;3.95;;
59424;SDS011;45231;44.826;20.312;2022-07-23T15:07:54;7.35;;;4.30;;
59424;SDS011;45231;44.826;20.312;2022-07-23T15:10:20;9.82;;;4.70;;
59424;SDS011;45231;44.826;20.312;2022-07-23T15:12:46;9.13;;;4.18;;
59424;SDS011;45231;44.826;20.312;2022-07-23T15:15:12;10.32;;;4.55;;
59424;SDS011;45231;44.826;20.312;2022-07-23T15:17:38;6.85;;;4.13;;
59424;SDS011;45231;44.826;20.312;2022-07-23T15:20:05;10.40;;;4.30;;
59424;SDS011;45231;44.826;20.312;2022-07-23T15:22:31;9.05;;;4.07;;
59424;SDS011;45231;44.826;20.312;2022-07-23T15:24:57;7.75;;;4.22;;
59424;SDS011;45231;44.826;20.312;2022-07-23T15:27:24;7.50;;;4.50;;
59424;SDS011;45231;44.826;20.312;2022-07-23T15:29:50;7.05;;;4.20;;
59424;SDS011;45231;44.826;20.312;2022-07-23T15:32:16;11.30;;;4.32;;
59424;SDS011;45231;44.826;20.312;2022-07-23T15:34:42;11.10;;;4.45;;
59424;SDS011;45231;44.826;20.312;2022-07-23T15:37:08;7.78;;;4.10;;
59424;SDS011;45231;44.826;20.312;2022-07-23T15:39:34;6.50;;;4.32;;
59424;SDS011;45231;44.826;20.312;2022-07-23T15:42:01;12.60;;;4.10;;